sensor_id;sensor_type;location;lat;lon;timestamp;P1;durP1;ratioP1;P2;durP2;ratioP2
9938;SDS011;5008;50.656;7.188;2022-07-05T00:00:11;2.13;;;1.45;;
9938;SDS011;5008;50.656;7.188;2022-07-05T00:02:38;1.48;;;1.38;;
9938;SDS011;5008;50.656;7.188;2022-07-05T00:05:05;1.63;;;1.52;;
9938;SDS011;5008;50.656;7.188;2022-07-05T00:07:32;2.10;;;1.58;;
9938;SDS011;5008;50.656;7.188;2022-07-05T00:09:59;3.13;;;1.67;;
9938;SDS011;5008;50.656;7.188;2022-07-05T00:12:28;1.50;;;1.40;;
9938;SDS011;5008;50.656;7.188;2022-07-05T00:14:57;1.83;;;1.73;;
9938;SDS011;5008;50.656;7.188;2022-07-05T00:17:24;2.08;;;1.58;;
9938;SDS011;5008;50.656;7.188;2022-07-05T00:19:51;2.38;;;1.50;;
9938;SDS011;5008;50.656;7.188;2022-07-05T00:22:18;3.17;;;1.80;;
9938;SDS011;5008;50.656;7.188;2022-07-05T00:24:45;2.20;;;1.70;;
9938;SDS011;5008;50.656;7.188;2022-07-05T00:27:11;1.70;;;1.60;;
9938;SDS011;5008;50.656;7.188;2022-07-05T00:29:39;1.55;;;1.48;;
9938;SDS011;5008;50.656;7.188;2022-07-05T00:32:06;2.47;;;1.70;;
9938;SDS011;5008;50.656;7.188;2022-07-05T00:34:33;1.92;;;1.80;;
9938;SDS011;5008;50.656;7.188;2022-07-05T00:36:59;1.70;;;1.60;;
9938;SDS011;5008;50.656;7.188;2022-07-05T00:39:26;2.00;;;1.60;;
9938;SDS011;5008;50.656;7.188;2022-07-05T00:41:53;1.80;;;1.70;;
9938;SDS011;5008;50.656;7.188;2022-07-05T00:44:27;1.95;;;1.83;;
9938;SDS011;5008;50.656;7.188;2022-07-05T00:46:57;2.10;;;1.95;;
9938;SDS011;5008;50.656;7.188;2022-07-05T00:49:24;2.45;;;1.73;;
9938;SDS011;5008;50.656;7.188;2022-07-05T00:51:51;2.40;;;1.75;;
9938;SDS011;5008;50.656;7.188;2022-07-05T00:54:18;2.35;;;1.90;;
9938;SDS011;5008;50.656;7.188;2022-07-05T00:56:45;1.92;;;1.80;;
9938;SDS011;5008;50.656;7.188;2022-07-05T00:59:11;2.47;;;2.03;;
9938;SDS011;5008;50.656;7.188;2022-07-05T01:01:38;3.15;;;1.88;;
9938;SDS011;5008;50.656;7.188;2022-07-05T01:04:06;2.35;;;2.15;;
9938;SDS011;5008;50.656;7.188;2022-07-05T01:06:33;3.25;;;2.08;;
9938;SDS011;5008;50.656;7.188;2022-07-05T01:09:00;2.13;;;1.83;;
9938;SDS011;5008;50.656;7.188;2022-07-05T01:11:27;2.40;;;2.20;;
9938;SDS011;5008;50.656;7.188;2022-07-05T01:13:55;3.58;;;2.00;;
9938;SDS011;5008;50.656;7.188;2022-07-05T01:16:24;2.33;;;1.70;;
9938;SDS011;5008;50.656;7.188;2022-07-05T01:18:51;2.72;;;1.92;;
9938;SDS011;5008;50.656;7.188;2022-07-05T01:21:20;3.08;;;2.08;;
9938;SDS011;5008;50.656;7.188;2022-07-05T01:23:50;4.35;;;2.00;;
9938;SDS011;5008;50.656;7.188;2022-07-05T01:26:17;2.25;;;1.92;;
9938;SDS011;5008;50.656;7.188;2022-07-05T01:28:44;2.53;;;1.83;;
9938;SDS011;5008;50.656;7.188;2022-07-05T01:31:11;3.30;;;2.40;;
9938;SDS011;5008;50.656;7.188;2022-07-05T01:33:37;2.42;;;2.22;;
9938;SDS011;5008;50.656;7.188;2022-07-05T01:36:04;3.25;;;2.20;;
9938;SDS011;5008;50.656;7.188;2022-07-05T01:38:31;2.78;;;2.30;;
9938;SDS011;5008;50.656;7.188;2022-07-05T01:40:59;2.13;;;1.98;;
9938;SDS011;5008;50.656;7.188;2022-07-05T01:43:26;2.55;;;2.30;;
9938;SDS011;5008;50.656;7.188;2022-07-05T01:45:53;2.65;;;2.45;;
9938;SDS011;5008;50.656;7.188;2022-07-05T01:48:22;2.80;;;2.33;;
9938;SDS011;5008;50.656;7.188;2022-07-05T01:50:51;2.58;;;2.33;;
9938;SDS011;5008;50.656;7.188;2022-07-05T01:53:20;2.90;;;2.33;;
9938;SDS011;5008;50.656;7.188;2022-07-05T01:55:49;2.40;;;2.20;;
9938;SDS011;5008;50.656;7.188;2022-07-05T01:58:17;3.50;;;2.40;;
9938;SDS011;5008;50.656;7.188;2022-07-05T02:00:44;3.30;;;2.42;;
9938;SDS011;5008;50.656;7.188;2022-07-05T02:03:13;4.40;;;2.55;;
9938;SDS011;5008;50.656;7.188;2022-07-05T02:05:41;3.15;;;2.65;;
9938;SDS011;5008;50.656;7.188;2022-07-05T02:08:08;2.85;;;2.45;;
9938;SDS011;5008;50.656;7.188;2022-07-05T02:10:35;5.53;;;2.70;;
9938;SDS011;5008;50.656;7.188;2022-07-05T02:13:02;2.53;;;2.33;;
9938;SDS011;5008;50.656;7.188;2022-07-05T02:15:31;4.25;;;2.72;;
9938;SDS011;5008;50.656;7.188;2022-07-05T02:17:58;4.45;;;2.53;;
9938;SDS011;5008;50.656;7.188;2022-07-05T02:20:25;3.03;;;2.72;;
9938;SDS011;5008;50.656;7.188;2022-07-05T02:22:51;3.10;;;2.53;;
9938;SDS011;5008;50.656;7.188;2022-07-05T02:25:18;3.92;;;2.70;;
9938;SDS011;5008;50.656;7.188;2022-07-05T02:27:46;3.20;;;2.38;;
9938;SDS011;5008;50.656;7.188;2022-07-05T02:30:13;3.65;;;2.70;;
9938;SDS011;5008;50.656;7.188;2022-07-05T02:32:41;3.92;;;2.45;;
9938;SDS011;5008;50.656;7.188;2022-07-05T02:35:09;2.70;;;2.50;;
9938;SDS011;5008;50.656;7.188;2022-07-05T02:37:36;3.25;;;2.55;;
9938;SDS011;5008;50.656;7.188;2022-07-05T02:40:04;2.95;;;2.65;;
9938;SDS011;5008;50.656;7.188;2022-07-05T02:42:32;2.85;;;2.65;;
9938;SDS011;5008;50.656;7.188;2022-07-05T02:44:59;2.80;;;2.60;;
9938;SDS011;5008;50.656;7.188;2022-07-05T02:47:25;3.17;;;2.65;;
9938;SDS011;5008;50.656;7.188;2022-07-05T02:49:57;3.75;;;3.03;;
9938;SDS011;5008;50.656;7.188;2022-07-05T02:52:24;4.07;;;2.90;;
9938;SDS011;5008;50.656;7.188;2022-07-05T02:54:50;2.80;;;2.60;;
9938;SDS011;5008;50.656;7.188;2022-07-05T02:57:17;3.37;;;2.97;;
9938;SDS011;5008;50.656;7.188;2022-07-05T02:59:44;3.30;;;2.83;;
9938;SDS011;5008;50.656;7.188;2022-07-05T03:02:11;3.45;;;2.63;;
9938;SDS011;5008;50.656;7.188;2022-07-05T03:04:37;3.03;;;2.70;;
9938;SDS011;5008;50.656;7.188;2022-07-05T03:07:05;3.67;;;2.80;;
9938;SDS011;5008;50.656;7.188;2022-07-05T03:09:32;3.30;;;3.00;;
9938;SDS011;5008;50.656;7.188;2022-07-05T03:11:59;3.30;;;3.00;;
9938;SDS011;5008;50.656;7.188;2022-07-05T03:14:25;3.22;;;2.75;;
9938;SDS011;5008;50.656;7.188;2022-07-05T03:16:52;3.20;;;2.90;;
9938;SDS011;5008;50.656;7.188;2022-07-05T03:19:19;4.78;;;3.05;;
9938;SDS011;5008;50.656;7.188;2022-07-05T03:21:46;3.90;;;3.33;;
9938;SDS011;5008;50.656;7.188;2022-07-05T03:24:14;3.38;;;2.90;;
9938;SDS011;5008;50.656;7.188;2022-07-05T03:26:40;3.10;;;2.90;;
9938;SDS011;5008;50.656;7.188;2022-07-05T03:29:07;4.60;;;3.35;;
9938;SDS011;5008;50.656;7.188;2022-07-05T03:31:34;3.60;;;3.05;;
9938;SDS011;5008;50.656;7.188;2022-07-05T03:34:01;3.42;;;3.05;;
9938;SDS011;5008;50.656;7.188;2022-07-05T03:36:28;3.80;;;3.50;;
9938;SDS011;5008;50.656;7.188;2022-07-05T03:38:54;3.45;;;3.15;;
9938;SDS011;5008;50.656;7.188;2022-07-05T03:41:23;3.83;;;3.10;;
9938;SDS011;5008;50.656;7.188;2022-07-05T03:43:49;3.60;;;3.17;;
9938;SDS011;5008;50.656;7.188;2022-07-05T03:46:16;3.85;;;3.45;;
9938;SDS011;5008;50.656;7.188;2022-07-05T03:48:43;3.87;;;3.40;;
9938;SDS011;5008;50.656;7.188;2022-07-05T03:51:09;3.58;;;3.13;;
9938;SDS011;5008;50.656;7.188;2022-07-05T03:53:36;4.32;;;3.40;;
9938;SDS011;5008;50.656;7.188;2022-07-05T03:56:03;3.05;;;2.85;;
9938;SDS011;5008;50.656;7.188;2022-07-05T03:58:31;3.37;;;3.10;;
9938;SDS011;5008;50.656;7.188;2022-07-05T04:00:58;3.37;;;3.07;;
9938;SDS011;5008;50.656;7.188;2022-07-05T04:03:25;4.13;;;3.50;;
9938;SDS011;5008;50.656;7.188;2022-07-05T04:05:51;3.67;;;3.27;;
9938;SDS011;5008;50.656;7.188;2022-07-05T04:08:18;3.70;;;3.30;;
9938;SDS011;5008;50.656;7.188;2022-07-05T04:10:45;4.13;;;3.50;;
9938;SDS011;5008;50.656;7.188;2022-07-05T04:13:12;3.93;;;3.37;;
9938;SDS011;5008;50.656;7.188;2022-07-05T04:15:40;3.80;;;3.47;;
9938;SDS011;5008;50.656;7.188;2022-07-05T04:18:06;3.65;;;3.35;;
9938;SDS011;5008;50.656;7.188;2022-07-05T04:20:33;4.57;;;3.65;;
9938;SDS011;5008;50.656;7.188;2022-07-05T04:23:00;4.28;;;3.55;;
9938;SDS011;5008;50.656;7.188;2022-07-05T04:25:27;6.07;;;3.80;;
9938;SDS011;5008;50.656;7.188;2022-07-05T04:27:54;4.03;;;3.60;;
9938;SDS011;5008;50.656;7.188;2022-07-05T04:30:21;4.10;;;3.70;;
9938;SDS011;5008;50.656;7.188;2022-07-05T04:32:51;3.47;;;3.20;;
9938;SDS011;5008;50.656;7.188;2022-07-05T04:35:18;4.10;;;3.67;;
9938;SDS011;5008;50.656;7.188;2022-07-05T04:37:45;4.03;;;3.63;;
9938;SDS011;5008;50.656;7.188;2022-07-05T04:40:12;4.05;;;3.33;;
9938;SDS011;5008;50.656;7.188;2022-07-05T04:42:40;3.93;;;3.53;;
9938;SDS011;5008;50.656;7.188;2022-07-05T04:45:07;4.57;;;3.95;;
9938;SDS011;5008;50.656;7.188;2022-07-05T04:47:34;4.80;;;4.13;;
9938;SDS011;5008;50.656;7.188;2022-07-05T04:50:03;4.22;;;3.83;;
9938;SDS011;5008;50.656;7.188;2022-07-05T04:52:31;3.83;;;3.53;;
9938;SDS011;5008;50.656;7.188;2022-07-05T04:54:58;6.15;;;3.92;;
9938;SDS011;5008;50.656;7.188;2022-07-05T04:57:24;4.17;;;3.73;;
9938;SDS011;5008;50.656;7.188;2022-07-05T04:59:51;3.75;;;3.45;;
9938;SDS011;5008;50.656;7.188;2022-07-05T05:02:18;4.70;;;4.10;;
9938;SDS011;5008;50.656;7.188;2022-07-05T05:04:45;4.00;;;3.60;;
9938;SDS011;5008;50.656;7.188;2022-07-05T05:07:13;5.13;;;3.67;;
9938;SDS011;5008;50.656;7.188;2022-07-05T05:09:39;3.85;;;3.55;;
9938;SDS011;5008;50.656;7.188;2022-07-05T05:12:06;4.00;;;3.28;;
9938;SDS011;5008;50.656;7.188;2022-07-05T05:14:34;3.72;;;3.42;;
9938;SDS011;5008;50.656;7.188;2022-07-05T05:17:00;3.60;;;3.30;;
9938;SDS011;5008;50.656;7.188;2022-07-05T05:19:27;4.35;;;3.55;;
9938;SDS011;5008;50.656;7.188;2022-07-05T05:21:54;4.68;;;3.55;;
9938;SDS011;5008;50.656;7.188;2022-07-05T05:24:22;3.40;;;3.10;;
9938;SDS011;5008;50.656;7.188;2022-07-05T05:26:49;5.63;;;4.40;;
9938;SDS011;5008;50.656;7.188;2022-07-05T05:29:16;4.80;;;4.32;;
9938;SDS011;5008;50.656;7.188;2022-07-05T05:31:43;4.43;;;3.90;;
9938;SDS011;5008;50.656;7.188;2022-07-05T05:34:09;5.38;;;3.75;;
9938;SDS011;5008;50.656;7.188;2022-07-05T05:36:36;7.55;;;4.28;;
9938;SDS011;5008;50.656;7.188;2022-07-05T05:39:03;5.43;;;4.82;;
9938;SDS011;5008;50.656;7.188;2022-07-05T05:41:31;5.43;;;4.93;;
9938;SDS011;5008;50.656;7.188;2022-07-05T05:43:57;5.07;;;4.60;;
9938;SDS011;5008;50.656;7.188;2022-07-05T05:46:24;4.82;;;4.43;;
9938;SDS011;5008;50.656;7.188;2022-07-05T05:48:51;6.47;;;4.57;;
9938;SDS011;5008;50.656;7.188;2022-07-05T05:51:17;5.05;;;4.53;;
9938;SDS011;5008;50.656;7.188;2022-07-05T05:53:44;5.55;;;4.63;;
9938;SDS011;5008;50.656;7.188;2022-07-05T05:56:11;5.22;;;4.78;;
9938;SDS011;5008;50.656;7.188;2022-07-05T05:58:39;5.60;;;5.10;;
9938;SDS011;5008;50.656;7.188;2022-07-05T06:01:06;7.30;;;5.55;;
9938;SDS011;5008;50.656;7.188;2022-07-05T06:03:32;5.53;;;5.13;;
9938;SDS011;5008;50.656;7.188;2022-07-05T06:05:59;5.57;;;5.07;;
9938;SDS011;5008;50.656;7.188;2022-07-05T06:08:26;6.30;;;4.97;;
9938;SDS011;5008;50.656;7.188;2022-07-05T06:10:53;5.70;;;5.20;;
9938;SDS011;5008;50.656;7.188;2022-07-05T06:13:19;6.68;;;5.00;;
9938;SDS011;5008;50.656;7.188;2022-07-05T06:15:47;5.32;;;4.82;;
9938;SDS011;5008;50.656;7.188;2022-07-05T06:18:14;5.95;;;5.30;;
9938;SDS011;5008;50.656;7.188;2022-07-05T06:20:41;7.75;;;5.43;;
9938;SDS011;5008;50.656;7.188;2022-07-05T06:23:07;5.72;;;5.13;;
9938;SDS011;5008;50.656;7.188;2022-07-05T06:25:34;6.57;;;5.55;;
9938;SDS011;5008;50.656;7.188;2022-07-05T06:28:02;6.90;;;5.32;;
9938;SDS011;5008;50.656;7.188;2022-07-05T06:30:31;5.88;;;5.13;;
9938;SDS011;5008;50.656;7.188;2022-07-05T06:33:01;5.55;;;5.05;;
9938;SDS011;5008;50.656;7.188;2022-07-05T06:35:28;6.85;;;5.68;;
9938;SDS011;5008;50.656;7.188;2022-07-05T06:37:57;5.03;;;4.63;;
9938;SDS011;5008;50.656;7.188;2022-07-05T06:40:26;7.20;;;4.95;;
9938;SDS011;5008;50.656;7.188;2022-07-05T06:42:54;6.10;;;5.50;;
9938;SDS011;5008;50.656;7.188;2022-07-05T06:45:22;6.90;;;5.55;;
9938;SDS011;5008;50.656;7.188;2022-07-05T06:47:59;7.03;;;5.40;;
9938;SDS011;5008;50.656;7.188;2022-07-05T06:50:28;5.90;;;5.00;;
9938;SDS011;5008;50.656;7.188;2022-07-05T06:52:56;6.90;;;5.25;;
9938;SDS011;5008;50.656;7.188;2022-07-05T06:55:23;5.50;;;5.10;;
9938;SDS011;5008;50.656;7.188;2022-07-05T06:57:56;6.93;;;5.20;;
9938;SDS011;5008;50.656;7.188;2022-07-05T07:00:24;5.40;;;4.88;;
9938;SDS011;5008;50.656;7.188;2022-07-05T07:02:51;5.47;;;4.97;;
9938;SDS011;5008;50.656;7.188;2022-07-05T07:05:19;5.15;;;4.68;;
9938;SDS011;5008;50.656;7.188;2022-07-05T07:07:45;5.55;;;5.05;;
9938;SDS011;5008;50.656;7.188;2022-07-05T07:10:30;4.97;;;4.55;;
9938;SDS011;5008;50.656;7.188;2022-07-05T07:12:57;5.05;;;4.65;;
9938;SDS011;5008;50.656;7.188;2022-07-05T07:15:24;4.80;;;4.40;;
9938;SDS011;5008;50.656;7.188;2022-07-05T07:17:51;6.57;;;4.80;;
9938;SDS011;5008;50.656;7.188;2022-07-05T07:20:19;5.72;;;4.88;;
9938;SDS011;5008;50.656;7.188;2022-07-05T07:22:46;6.50;;;4.63;;
9938;SDS011;5008;50.656;7.188;2022-07-05T07:25:12;7.18;;;4.80;;
9938;SDS011;5008;50.656;7.188;2022-07-05T07:27:42;5.20;;;4.70;;
9938;SDS011;5008;50.656;7.188;2022-07-05T07:30:10;7.25;;;5.55;;
9938;SDS011;5008;50.656;7.188;2022-07-05T07:32:38;5.28;;;4.78;;
9938;SDS011;5008;50.656;7.188;2022-07-05T07:35:05;5.63;;;4.43;;
9938;SDS011;5008;50.656;7.188;2022-07-05T07:37:34;4.70;;;4.30;;
9938;SDS011;5008;50.656;7.188;2022-07-05T07:40:01;6.13;;;5.00;;
9938;SDS011;5008;50.656;7.188;2022-07-05T07:42:28;7.60;;;4.50;;
9938;SDS011;5008;50.656;7.188;2022-07-05T07:44:55;4.85;;;4.30;;
9938;SDS011;5008;50.656;7.188;2022-07-05T07:47:22;4.93;;;4.40;;
9938;SDS011;5008;50.656;7.188;2022-07-05T07:49:48;5.00;;;4.50;;
9938;SDS011;5008;50.656;7.188;2022-07-05T07:52:15;8.07;;;4.90;;
9938;SDS011;5008;50.656;7.188;2022-07-05T07:54:43;4.15;;;3.75;;
9938;SDS011;5008;50.656;7.188;2022-07-05T07:57:10;4.65;;;3.90;;
9938;SDS011;5008;50.656;7.188;2022-07-05T07:59:37;4.10;;;3.67;;
9938;SDS011;5008;50.656;7.188;2022-07-05T08:02:04;4.30;;;3.92;;
9938;SDS011;5008;50.656;7.188;2022-07-05T08:04:30;4.88;;;4.40;;
9938;SDS011;5008;50.656;7.188;2022-07-05T08:06:58;4.90;;;3.83;;
9938;SDS011;5008;50.656;7.188;2022-07-05T08:09:24;5.32;;;4.45;;
9938;SDS011;5008;50.656;7.188;2022-07-05T08:11:52;4.25;;;3.80;;
9938;SDS011;5008;50.656;7.188;2022-07-05T08:14:19;3.85;;;3.55;;
9938;SDS011;5008;50.656;7.188;2022-07-05T08:16:47;5.38;;;4.00;;
9938;SDS011;5008;50.656;7.188;2022-07-05T08:19:14;6.45;;;5.22;;
9938;SDS011;5008;50.656;7.188;2022-07-05T08:21:58;4.57;;;4.00;;
9938;SDS011;5008;50.656;7.188;2022-07-05T08:24:26;4.93;;;4.00;;
9938;SDS011;5008;50.656;7.188;2022-07-05T08:26:54;4.78;;;3.85;;
9938;SDS011;5008;50.656;7.188;2022-07-05T08:29:21;6.05;;;4.07;;
9938;SDS011;5008;50.656;7.188;2022-07-05T08:31:48;5.53;;;4.35;;
9938;SDS011;5008;50.656;7.188;2022-07-05T08:34:16;4.45;;;3.95;;
9938;SDS011;5008;50.656;7.188;2022-07-05T08:36:44;4.68;;;4.10;;
9938;SDS011;5008;50.656;7.188;2022-07-05T08:39:11;5.70;;;4.00;;
9938;SDS011;5008;50.656;7.188;2022-07-05T08:41:39;11.23;;;4.93;;
9938;SDS011;5008;50.656;7.188;2022-07-05T08:44:08;6.78;;;4.65;;
9938;SDS011;5008;50.656;7.188;2022-07-05T08:46:37;5.63;;;3.97;;
9938;SDS011;5008;50.656;7.188;2022-07-05T08:49:04;4.32;;;3.92;;
9938;SDS011;5008;50.656;7.188;2022-07-05T08:51:32;6.50;;;4.35;;
9938;SDS011;5008;50.656;7.188;2022-07-05T08:54:00;5.18;;;4.68;;
9938;SDS011;5008;50.656;7.188;2022-07-05T08:56:27;5.00;;;4.50;;
9938;SDS011;5008;50.656;7.188;2022-07-05T08:58:55;5.18;;;4.70;;
9938;SDS011;5008;50.656;7.188;2022-07-05T09:01:23;5.25;;;4.75;;
9938;SDS011;5008;50.656;7.188;2022-07-05T09:03:51;5.15;;;4.65;;
9938;SDS011;5008;50.656;7.188;2022-07-05T09:06:19;5.88;;;4.18;;
9938;SDS011;5008;50.656;7.188;2022-07-05T09:08:48;7.32;;;3.92;;
9938;SDS011;5008;50.656;7.188;2022-07-05T09:11:17;4.63;;;3.83;;
9938;SDS011;5008;50.656;7.188;2022-07-05T09:13:49;4.78;;;4.13;;
9938;SDS011;5008;50.656;7.188;2022-07-05T09:16:17;4.40;;;4.00;;
9938;SDS011;5008;50.656;7.188;2022-07-05T09:18:45;4.18;;;3.80;;
9938;SDS011;5008;50.656;7.188;2022-07-05T09:21:14;5.43;;;3.88;;
9938;SDS011;5008;50.656;7.188;2022-07-05T09:23:41;4.85;;;3.63;;
9938;SDS011;5008;50.656;7.188;2022-07-05T09:26:09;5.60;;;4.30;;
9938;SDS011;5008;50.656;7.188;2022-07-05T09:28:36;6.03;;;4.95;;
9938;SDS011;5008;50.656;7.188;2022-07-05T09:31:02;5.25;;;4.20;;
9938;SDS011;5008;50.656;7.188;2022-07-05T09:33:29;5.88;;;5.03;;
9938;SDS011;5008;50.656;7.188;2022-07-05T09:35:58;5.50;;;5.00;;
9938;SDS011;5008;50.656;7.188;2022-07-05T09:38:26;4.55;;;4.15;;
9938;SDS011;5008;50.656;7.188;2022-07-05T09:40:55;4.00;;;3.63;;
9938;SDS011;5008;50.656;7.188;2022-07-05T09:43:23;4.93;;;4.50;;
9938;SDS011;5008;50.656;7.188;2022-07-05T09:45:53;4.65;;;3.53;;
9938;SDS011;5008;50.656;7.188;2022-07-05T09:48:24;3.95;;;3.53;;
9938;SDS011;5008;50.656;7.188;2022-07-05T09:50:51;4.10;;;3.72;;
9938;SDS011;5008;50.656;7.188;2022-07-05T09:53:19;3.70;;;3.30;;
9938;SDS011;5008;50.656;7.188;2022-07-05T09:56:01;4.80;;;3.78;;
9938;SDS011;5008;50.656;7.188;2022-07-05T09:58:29;4.80;;;3.65;;
9938;SDS011;5008;50.656;7.188;2022-07-05T10:00:56;4.32;;;3.47;;
9938;SDS011;5008;50.656;7.188;2022-07-05T10:03:22;4.63;;;3.45;;
9938;SDS011;5008;50.656;7.188;2022-07-05T10:05:49;4.47;;;2.80;;
9938;SDS011;5008;50.656;7.188;2022-07-05T10:08:16;4.82;;;3.30;;
9938;SDS011;5008;50.656;7.188;2022-07-05T10:10:45;3.53;;;2.65;;
9938;SDS011;5008;50.656;7.188;2022-07-05T10:13:15;4.63;;;2.83;;
9938;SDS011;5008;50.656;7.188;2022-07-05T10:15:42;3.47;;;2.78;;
9938;SDS011;5008;50.656;7.188;2022-07-05T10:18:11;3.28;;;2.90;;
9938;SDS011;5008;50.656;7.188;2022-07-05T10:20:39;2.30;;;2.10;;
9938;SDS011;5008;50.656;7.188;2022-07-05T10:23:08;3.53;;;2.45;;
9938;SDS011;5008;50.656;7.188;2022-07-05T10:25:36;3.33;;;2.55;;
9938;SDS011;5008;50.656;7.188;2022-07-05T10:28:05;2.42;;;2.20;;
9938;SDS011;5008;50.656;7.188;2022-07-05T10:30:33;4.85;;;2.55;;
9938;SDS011;5008;50.656;7.188;2022-07-05T10:33:01;3.03;;;2.47;;
9938;SDS011;5008;50.656;7.188;2022-07-05T10:35:29;2.53;;;1.80;;
9938;SDS011;5008;50.656;7.188;2022-07-05T10:37:56;2.70;;;2.50;;
9938;SDS011;5008;50.656;7.188;2022-07-05T10:40:25;3.15;;;2.00;;
9938;SDS011;5008;50.656;7.188;2022-07-05T10:42:54;2.25;;;2.05;;
9938;SDS011;5008;50.656;7.188;2022-07-05T10:45:28;2.45;;;2.20;;
9938;SDS011;5008;50.656;7.188;2022-07-05T10:48:11;2.75;;;2.15;;
9938;SDS011;5008;50.656;7.188;2022-07-05T10:50:42;2.17;;;1.63;;
9938;SDS011;5008;50.656;7.188;2022-07-05T10:56:22;2.00;;;1.83;;
9938;SDS011;5008;50.656;7.188;2022-07-05T10:58:48;1.80;;;1.70;;
9938;SDS011;5008;50.656;7.188;2022-07-05T11:01:35;2.17;;;1.98;;
9938;SDS011;5008;50.656;7.188;2022-07-05T11:06:52;1.90;;;1.80;;
9938;SDS011;5008;50.656;7.188;2022-07-05T11:09:25;4.57;;;2.15;;
9938;SDS011;5008;50.656;7.188;2022-07-05T11:12:02;2.08;;;1.88;;
9938;SDS011;5008;50.656;7.188;2022-07-05T11:14:37;2.08;;;1.77;;
9938;SDS011;5008;50.656;7.188;2022-07-05T11:17:16;3.35;;;1.98;;
9938;SDS011;5008;50.656;7.188;2022-07-05T11:23:01;1.83;;;1.73;;
9938;SDS011;5008;50.656;7.188;2022-07-05T11:25:29;2.05;;;1.95;;
9938;SDS011;5008;50.656;7.188;2022-07-05T11:28:04;1.90;;;1.80;;
9938;SDS011;5008;50.656;7.188;2022-07-05T11:30:46;2.65;;;1.65;;
9938;SDS011;5008;50.656;7.188;2022-07-05T11:33:33;5.60;;;1.80;;
9938;SDS011;5008;50.656;7.188;2022-07-05T11:36:02;1.83;;;1.73;;
9938;SDS011;5008;50.656;7.188;2022-07-05T11:38:30;1.98;;;1.77;;
9938;SDS011;5008;50.656;7.188;2022-07-05T11:41:10;3.42;;;1.67;;
9938;SDS011;5008;50.656;7.188;2022-07-05T11:43:37;3.63;;;1.85;;
9938;SDS011;5008;50.656;7.188;2022-07-05T11:46:06;2.13;;;1.92;;
9938;SDS011;5008;50.656;7.188;2022-07-05T11:48:34;2.47;;;1.73;;
9938;SDS011;5008;50.656;7.188;2022-07-05T11:51:11;2.60;;;1.98;;
9938;SDS011;5008;50.656;7.188;2022-07-05T11:53:38;1.70;;;1.55;;
9938;SDS011;5008;50.656;7.188;2022-07-05T11:56:07;1.60;;;1.50;;
9938;SDS011;5008;50.656;7.188;2022-07-05T11:58:35;1.75;;;1.58;;
9938;SDS011;5008;50.656;7.188;2022-07-05T12:01:01;4.43;;;2.00;;
9938;SDS011;5008;50.656;7.188;2022-07-05T12:03:28;2.70;;;1.90;;
9938;SDS011;5008;50.656;7.188;2022-07-05T12:05:56;1.92;;;1.77;;
9938;SDS011;5008;50.656;7.188;2022-07-05T12:08:23;1.95;;;1.80;;
9938;SDS011;5008;50.656;7.188;2022-07-05T12:10:51;1.88;;;1.77;;
9938;SDS011;5008;50.656;7.188;2022-07-05T12:13:45;3.05;;;1.88;;
9938;SDS011;5008;50.656;7.188;2022-07-05T12:16:13;2.13;;;1.85;;
9938;SDS011;5008;50.656;7.188;2022-07-05T12:18:47;2.53;;;1.73;;
9938;SDS011;5008;50.656;7.188;2022-07-05T12:21:16;1.80;;;1.70;;
9938;SDS011;5008;50.656;7.188;2022-07-05T12:23:45;2.13;;;1.80;;
9938;SDS011;5008;50.656;7.188;2022-07-05T12:26:12;3.22;;;1.83;;
9938;SDS011;5008;50.656;7.188;2022-07-05T12:28:40;4.85;;;1.77;;
9938;SDS011;5008;50.656;7.188;2022-07-05T12:31:15;2.33;;;2.13;;
9938;SDS011;5008;50.656;7.188;2022-07-05T12:33:43;1.83;;;1.70;;
9938;SDS011;5008;50.656;7.188;2022-07-05T12:36:13;4.35;;;2.17;;
9938;SDS011;5008;50.656;7.188;2022-07-05T12:38:42;2.03;;;1.92;;
9938;SDS011;5008;50.656;7.188;2022-07-05T12:41:09;1.85;;;1.50;;
9938;SDS011;5008;50.656;7.188;2022-07-05T12:43:49;1.60;;;1.50;;
9938;SDS011;5008;50.656;7.188;2022-07-05T12:46:17;2.90;;;1.70;;
9938;SDS011;5008;50.656;7.188;2022-07-05T12:48:43;2.22;;;1.60;;
9938;SDS011;5008;50.656;7.188;2022-07-05T12:51:11;1.67;;;1.58;;
9938;SDS011;5008;50.656;7.188;2022-07-05T12:53:46;1.60;;;1.50;;
9938;SDS011;5008;50.656;7.188;2022-07-05T12:56:31;2.17;;;2.00;;
9938;SDS011;5008;50.656;7.188;2022-07-05T12:59:15;2.28;;;1.92;;
9938;SDS011;5008;50.656;7.188;2022-07-05T13:01:43;2.88;;;1.98;;
9938;SDS011;5008;50.656;7.188;2022-07-05T13:04:11;1.95;;;1.85;;
9938;SDS011;5008;50.656;7.188;2022-07-05T13:06:39;2.17;;;1.95;;
9938;SDS011;5008;50.656;7.188;2022-07-05T13:09:13;1.85;;;1.73;;
9938;SDS011;5008;50.656;7.188;2022-07-05T13:11:41;2.20;;;2.10;;
9938;SDS011;5008;50.656;7.188;2022-07-05T13:14:08;2.53;;;1.88;;
9938;SDS011;5008;50.656;7.188;2022-07-05T13:16:35;4.25;;;2.00;;
9938;SDS011;5008;50.656;7.188;2022-07-05T13:19:05;3.92;;;2.45;;
9938;SDS011;5008;50.656;7.188;2022-07-05T13:21:33;2.28;;;1.80;;
9938;SDS011;5008;50.656;7.188;2022-07-05T13:24:00;3.08;;;1.83;;
9938;SDS011;5008;50.656;7.188;2022-07-05T13:26:28;3.45;;;1.83;;
9938;SDS011;5008;50.656;7.188;2022-07-05T13:28:55;2.40;;;1.73;;
9938;SDS011;5008;50.656;7.188;2022-07-05T13:31:22;2.40;;;1.90;;
9938;SDS011;5008;50.656;7.188;2022-07-05T13:33:48;1.95;;;1.75;;
9938;SDS011;5008;50.656;7.188;2022-07-05T13:36:15;2.38;;;1.88;;
9938;SDS011;5008;50.656;7.188;2022-07-05T13:38:42;2.30;;;1.85;;
9938;SDS011;5008;50.656;7.188;2022-07-05T13:41:09;2.28;;;1.90;;
9938;SDS011;5008;50.656;7.188;2022-07-05T13:43:37;2.22;;;2.03;;
9938;SDS011;5008;50.656;7.188;2022-07-05T13:46:04;1.95;;;1.80;;
9938;SDS011;5008;50.656;7.188;2022-07-05T13:48:31;2.40;;;1.80;;
9938;SDS011;5008;50.656;7.188;2022-07-05T13:50:58;1.88;;;1.77;;
9938;SDS011;5008;50.656;7.188;2022-07-05T13:53:25;3.30;;;2.55;;
9938;SDS011;5008;50.656;7.188;2022-07-05T13:55:52;1.90;;;1.70;;
9938;SDS011;5008;50.656;7.188;2022-07-05T13:58:19;1.98;;;1.60;;
9938;SDS011;5008;50.656;7.188;2022-07-05T14:00:47;2.97;;;1.63;;
9938;SDS011;5008;50.656;7.188;2022-07-05T14:03:14;1.83;;;1.73;;
9938;SDS011;5008;50.656;7.188;2022-07-05T14:05:41;2.47;;;1.58;;
9938;SDS011;5008;50.656;7.188;2022-07-05T14:08:09;3.00;;;1.60;;
9938;SDS011;5008;50.656;7.188;2022-07-05T14:10:36;2.85;;;1.73;;
9938;SDS011;5008;50.656;7.188;2022-07-05T14:13:03;3.53;;;2.00;;
9938;SDS011;5008;50.656;7.188;2022-07-05T14:15:29;3.13;;;1.67;;
9938;SDS011;5008;50.656;7.188;2022-07-05T14:17:58;2.17;;;1.65;;
9938;SDS011;5008;50.656;7.188;2022-07-05T14:20:27;2.08;;;1.88;;
9938;SDS011;5008;50.656;7.188;2022-07-05T14:22:54;2.58;;;1.80;;
9938;SDS011;5008;50.656;7.188;2022-07-05T14:25:20;1.73;;;1.63;;
9938;SDS011;5008;50.656;7.188;2022-07-05T14:27:47;3.03;;;1.77;;
9938;SDS011;5008;50.656;7.188;2022-07-05T14:30:14;2.53;;;1.60;;
9938;SDS011;5008;50.656;7.188;2022-07-05T14:32:41;2.70;;;2.00;;
9938;SDS011;5008;50.656;7.188;2022-07-05T14:35:09;1.63;;;1.40;;
9938;SDS011;5008;50.656;7.188;2022-07-05T14:37:36;2.10;;;1.90;;
9938;SDS011;5008;50.656;7.188;2022-07-05T14:40:03;2.72;;;1.92;;
9938;SDS011;5008;50.656;7.188;2022-07-05T14:42:32;1.73;;;1.48;;
9938;SDS011;5008;50.656;7.188;2022-07-05T14:44:59;3.25;;;1.90;;
9938;SDS011;5008;50.656;7.188;2022-07-05T14:47:26;1.95;;;1.70;;
9938;SDS011;5008;50.656;7.188;2022-07-05T14:49:53;3.30;;;2.00;;
9938;SDS011;5008;50.656;7.188;2022-07-05T14:52:21;3.20;;;1.77;;
9938;SDS011;5008;50.656;7.188;2022-07-05T14:54:48;2.67;;;1.98;;
9938;SDS011;5008;50.656;7.188;2022-07-05T14:57:15;2.72;;;1.75;;
9938;SDS011;5008;50.656;7.188;2022-07-05T14:59:41;3.80;;;1.85;;
9938;SDS011;5008;50.656;7.188;2022-07-05T15:02:08;2.05;;;1.80;;
9938;SDS011;5008;50.656;7.188;2022-07-05T15:04:35;1.95;;;1.80;;
9938;SDS011;5008;50.656;7.188;2022-07-05T15:07:02;4.32;;;1.92;;
9938;SDS011;5008;50.656;7.188;2022-07-05T15:09:30;1.63;;;1.50;;
9938;SDS011;5008;50.656;7.188;2022-07-05T15:11:57;2.78;;;1.70;;
9938;SDS011;5008;50.656;7.188;2022-07-05T15:14:24;2.53;;;1.65;;
9938;SDS011;5008;50.656;7.188;2022-07-05T15:16:52;3.83;;;2.05;;
9938;SDS011;5008;50.656;7.188;2022-07-05T15:19:19;1.60;;;1.50;;
9938;SDS011;5008;50.656;7.188;2022-07-05T15:21:46;1.88;;;1.70;;
9938;SDS011;5008;50.656;7.188;2022-07-05T15:24:12;1.92;;;1.83;;
9938;SDS011;5008;50.656;7.188;2022-07-05T15:26:40;1.70;;;1.60;;
9938;SDS011;5008;50.656;7.188;2022-07-05T15:29:08;1.58;;;1.48;;